createdAt,value
2023-04-10T00:00:20.811Z,101992.19
2023-04-10T00:05:23.441Z,101993.66
2023-04-10T00:10:28.731Z,101997.50
2023-04-10T00:15:32.069Z,102000.69
2023-04-10T00:20:35.260Z,102001.91
2023-04-10T00:25:38.035Z,102010.00
2023-04-10T00:30:40.879Z,102009.38
2023-04-10T00:35:43.883Z,102005.88
2023-04-10T00:40:46.951Z,102008.69
2023-04-10T00:45:50.864Z,102003.47
2023-04-10T00:50:54.947Z,102000.19
2023-04-10T00:55:58.097Z,101998.88
2023-04-10T01:01:00.844Z,101995.03
2023-04-10T01:06:27.196Z,102001.91
2023-04-10T01:11:52.840Z,102006.63
2023-04-10T01:17:07.861Z,101999.13
2023-04-10T01:22:14.026Z,102000.72
2023-04-10T01:27:37.383Z,102006.38
2023-04-10T01:32:41.915Z,102017.63
2023-04-10T01:37:48.937Z,102005.81
2023-04-10T01:42:55.745Z,102015.94
2023-04-10T01:48:05.896Z,102015.22
2023-04-10T01:53:09.778Z,102024.88
2023-04-10T01:58:13.315Z,102021.84
2023-04-10T02:03:17.538Z,102021.47
2023-04-10T02:08:42.909Z,102019.19
2023-04-10T02:13:47.575Z,102025.56
2023-04-10T02:18:53.235Z,102024.84
2023-04-10T02:23:58.297Z,102031.59
2023-04-10T02:29:00.932Z,102030.66
2023-04-10T02:34:04.005Z,102033.41
2023-04-10T02:39:08.701Z,102036.56
2023-04-10T02:44:21.177Z,102036.09
2023-04-10T02:49:23.912Z,102044.19
2023-04-10T02:54:27.367Z,102038.78
2023-04-10T02:59:30.273Z,102039.63
2023-04-10T03:04:34.332Z,102025.94
2023-04-10T03:09:38.089Z,102045.44
2023-04-10T03:14:41.777Z,102046.59
2023-04-10T03:19:44.476Z,102046.75
2023-04-10T03:24:47.167Z,102038.66
2023-04-10T03:29:50.325Z,102042.91
2023-04-10T03:34:53.937Z,102050.88
2023-04-10T03:39:56.796Z,102057.75
2023-04-10T03:44:59.864Z,102055.72
2023-04-10T03:50:03.259Z,102051.81
2023-04-10T03:55:14.680Z,102064.22
2023-04-10T04:00:18.238Z,102071.66
2023-04-10T04:05:25.042Z,102080.75
2023-04-10T04:10:50.936Z,102077.91
2023-04-10T04:16:01.190Z,102080.81
2023-04-10T04:21:20.609Z,102074.03
2023-04-10T04:26:52.082Z,102082.56
2023-04-10T04:32:13.204Z,102080.59
2023-04-10T04:37:34.727Z,102081.25
2023-04-10T04:42:52.642Z,102085.19
2023-04-10T04:48:18.528Z,102072.69
2023-04-10T04:53:44.423Z,102088.78
2023-04-10T04:59:05.541Z,102078.44
2023-04-10T05:04:25.968Z,102080.94
2023-04-10T05:09:28.907Z,102085.47
2023-04-10T05:14:51.980Z,102084.41
2023-04-10T05:20:18.318Z,102086.94
2023-04-10T05:25:50.952Z,102083.09
2023-04-10T05:31:19.729Z,102091.03
2023-04-10T05:36:51.944Z,102086.97
2023-04-10T05:42:18.572Z,102092.00
2023-04-10T05:47:28.839Z,102100.59
2023-04-10T05:52:42.084Z,102102.53
2023-04-10T05:57:57.228Z,102094.44
2023-04-10T06:03:18.545Z,102107.50
2023-04-10T06:08:27.808Z,102122.44
2023-04-10T06:13:30.689Z,102122.69
2023-04-10T06:18:35.199Z,102109.47
2023-04-10T06:23:39.769Z,102108.19
2023-04-10T06:28:42.569Z,102109.50
2023-04-10T06:33:49.995Z,102108.31
2023-04-10T06:38:53.574Z,102107.47
2023-04-10T06:43:56.660Z,102106.16
2023-04-10T06:48:59.431Z,102101.50
2023-04-10T06:54:02.548Z,102097.22
2023-04-10T06:59:05.107Z,102104.56
2023-04-10T07:04:07.960Z,102098.50
2023-04-10T07:09:10.968Z,102102.78
2023-04-10T07:14:13.766Z,102096.72
2023-04-10T07:19:17.030Z,102090.03
2023-04-10T07:24:19.845Z,102090.31
2023-04-10T07:29:22.724Z,102074.81
2023-04-10T07:34:26.296Z,102074.66
2023-04-10T07:39:32.547Z,102079.78
2023-04-10T07:44:36.611Z,102077.69
2023-04-10T07:49:39.330Z,102073.84
2023-04-10T07:54:42.325Z,102079.34
2023-04-10T07:59:45.007Z,102079.78
2023-04-10T08:04:47.904Z,102072.25
2023-04-10T08:09:50.870Z,102069.19
2023-04-10T08:14:53.318Z,102066.72
2023-04-10T08:19:56.616Z,102055.59
2023-04-10T08:24:59.386Z,102059.13
2023-04-10T08:30:02.432Z,102041.09
2023-04-10T08:35:06.930Z,102033.63
2023-04-10T08:40:10.190Z,102042.50
2023-04-10T08:45:12.866Z,102037.34
2023-04-10T08:50:17.720Z,102039.28
2023-04-10T08:55:21.912Z,102047.53
2023-04-10T09:00:25.348Z,102024.56
2023-04-10T09:05:29.308Z,102031.09
2023-04-10T09:10:32.168Z,102029.88
2023-04-10T09:15:55.676Z,102023.44
2023-04-10T09:21:07.597Z,102032.34
2023-04-10T09:26:28.469Z,102009.72
2023-04-10T09:31:36.750Z,102014.03
2023-04-10T09:36:43.992Z,102004.59
2023-04-10T09:41:51.065Z,101995.88
2023-04-10T09:46:54.539Z,101992.69
2023-04-10T09:51:57.875Z,101994.25
2023-04-10T09:57:00.823Z,101987.41
2023-04-10T10:02:04.652Z,101977.88
2023-04-10T10:07:08.122Z,101977.03
2023-04-10T10:12:13.049Z,101975.38
2023-04-10T10:17:21.490Z,101974.97
2023-04-10T10:22:26.379Z,101980.88
2023-04-10T10:27:35.063Z,101967.84
2023-04-10T10:32:38.287Z,101952.69
2023-04-10T10:37:42.998Z,101957.81
2023-04-10T10:43:08.907Z,101950.22
2023-04-10T10:48:11.828Z,101954.28
2023-04-10T10:53:35.609Z,101947.88
2023-04-10T10:58:53.034Z,101951.81
2023-04-10T11:03:57.462Z,101947.19
2023-04-10T11:09:02.116Z,101941.16
2023-04-10T11:14:07.999Z,101931.72
2023-04-10T11:19:19.926Z,101943.56
2023-04-10T11:24:24.793Z,101939.00
2023-04-10T11:29:27.480Z,101926.94
2023-04-10T11:34:32.715Z,101921.00
2023-04-10T11:39:35.594Z,101924.75
2023-04-10T11:44:44.798Z,101936.06
2023-04-10T11:49:56.259Z,101929.28
2023-04-10T11:54:59.457Z,101919.44
2023-04-10T12:00:05.377Z,101903.88
2023-04-10T12:05:09.550Z,101901.31
2023-04-10T12:10:14.091Z,101893.84
2023-04-10T12:15:29.840Z,101889.09
2023-04-10T12:20:32.724Z,101889.69
2023-04-10T12:25:35.889Z,101877.56
2023-04-10T12:30:38.677Z,101878.06
2023-04-10T12:35:45.111Z,101881.06
2023-04-10T12:41:01.664Z,101881.97
2023-04-10T12:46:06.453Z,101875.44
2023-04-10T12:51:09.912Z,101864.78
2023-04-10T12:56:13.903Z,101861.22
2023-04-10T13:01:17.655Z,101869.38
2023-04-10T13:06:21.205Z,101864.16
2023-04-10T13:11:24.401Z,101863.31
2023-04-10T13:16:27.369Z,101860.38
2023-04-10T13:21:30.598Z,101865.72
2023-04-10T13:26:33.644Z,101858.00
2023-04-10T13:31:36.560Z,101865.81
2023-04-10T13:36:39.459Z,101865.56
2023-04-10T13:41:43.438Z,101866.34
2023-04-10T13:46:46.532Z,101867.50
2023-04-10T13:51:49.817Z,101869.44
2023-04-10T13:56:55.078Z,101858.50
2023-04-10T14:01:58.749Z,101859.47
2023-04-10T14:07:02.526Z,101871.56
2023-04-10T14:12:05.768Z,101867.78
2023-04-10T14:17:09.902Z,101867.31
2023-04-10T14:22:22.377Z,101874.03
2023-04-10T14:27:25.315Z,101863.97
2023-04-10T14:32:28.370Z,101860.25
2023-04-10T14:37:31.663Z,101862.41
2023-04-10T14:42:34.442Z,101863.09
2023-04-10T14:47:37.465Z,101839.31
2023-04-10T14:52:41.583Z,101857.72
2023-04-10T14:57:51.494Z,101849.84
2023-04-10T15:02:55.739Z,101849.75
2023-04-10T15:08:00.424Z,101857.34
2023-04-10T15:13:03.175Z,101851.13
2023-04-10T15:18:05.986Z,101846.91
2023-04-10T15:23:09.334Z,101857.81
2023-04-10T15:28:12.570Z,101855.22
2023-04-10T15:33:16.464Z,101863.78
2023-04-10T15:38:20.558Z,101866.75
2023-04-10T15:43:24.335Z,101865.31
2023-04-10T15:48:30.194Z,101869.69
2023-04-10T15:53:35.541Z,101868.25
2023-04-10T15:58:43.798Z,101866.13
2023-04-10T16:03:49.485Z,101864.16
2023-04-10T16:08:58.415Z,101866.34
2023-04-10T16:14:31.145Z,101880.44
2023-04-10T16:19:35.750Z,101883.47
2023-04-10T16:24:40.933Z,101884.97
2023-04-10T16:29:44.639Z,101889.19
2023-04-10T16:34:49.191Z,101891.53
2023-04-10T16:39:52.689Z,101887.50
2023-04-10T16:44:58.709Z,101890.03
2023-04-10T16:50:07.789Z,101886.81
2023-04-10T16:55:12.026Z,101890.34
2023-04-10T17:00:15.224Z,101888.00
2023-04-10T17:05:18.299Z,101882.44
2023-04-10T17:10:22.863Z,101881.59
2023-04-10T17:15:25.739Z,101888.97
2023-04-10T17:20:28.677Z,101893.00
2023-04-10T17:25:32.454Z,101893.97
2023-04-10T17:30:35.641Z,101888.09
2023-04-10T17:35:38.545Z,101895.25
2023-04-10T17:40:42.072Z,101840.63
2023-04-10T17:45:44.883Z,101887.16
2023-04-10T17:50:49.566Z,101897.41
2023-04-10T17:55:52.574Z,101881.28
2023-04-10T18:00:55.660Z,101870.84
2023-04-10T18:05:59.287Z,101875.63
2023-04-10T18:11:02.307Z,101861.00
2023-04-10T18:16:05.743Z,101876.38
2023-04-10T18:21:13.631Z,101860.91
2023-04-10T18:26:18.757Z,101854.03
2023-04-10T18:31:21.877Z,101856.34
2023-04-10T18:36:25.152Z,101859.03
2023-04-10T18:41:30.154Z,101857.25
2023-04-10T18:46:35.262Z,101857.00
2023-04-10T18:51:39.617Z,101858.91
2023-04-10T18:56:43.616Z,101861.09
2023-04-10T19:01:46.917Z,101853.50
2023-04-10T19:06:49.822Z,101847.81
2023-04-10T19:11:53.965Z,101839.75
2023-04-10T19:16:57.321Z,101830.69
2023-04-10T19:22:06.384Z,101829.84
2023-04-10T19:27:09.513Z,101820.25
2023-04-10T19:32:12.202Z,101821.25
2023-04-10T19:37:17.947Z,101818.84
2023-04-10T19:42:20.767Z,101816.59
2023-04-10T19:47:23.797Z,101809.34
2023-04-10T19:52:26.582Z,101801.72
2023-04-10T19:57:29.439Z,101810.34
2023-04-10T20:02:33.361Z,101800.13
2023-04-10T20:07:36.487Z,101807.53
2023-04-10T20:12:39.563Z,101810.47
2023-04-10T20:17:42.304Z,101800.38
2023-04-10T20:22:45.189Z,101815.91
2023-04-10T20:27:47.823Z,101827.44
2023-04-10T20:32:50.525Z,101808.63
2023-04-10T20:37:53.377Z,101808.41
2023-04-10T20:42:56.184Z,101812.34
2023-04-10T20:47:59.361Z,101810.75
2023-04-10T20:53:04.715Z,101811.00
2023-04-10T20:58:07.542Z,101819.56
2023-04-10T21:03:10.509Z,101818.44
2023-04-10T21:08:15.186Z,101810.31
2023-04-10T21:13:18.150Z,101806.19
2023-04-10T21:18:21.117Z,101801.84
2023-04-10T21:23:23.786Z,101801.44
2023-04-10T21:28:26.493Z,101803.56
2023-04-10T21:33:29.376Z,101806.25
2023-04-10T21:38:32.315Z,101798.81
2023-04-10T21:43:35.614Z,101801.16
2023-04-10T21:48:38.480Z,101794.00
2023-04-10T21:53:41.219Z,101787.09
2023-04-10T21:58:43.904Z,101792.00
2023-04-10T22:03:46.572Z,101793.53
2023-04-10T22:08:49.550Z,101788.19
2023-04-10T22:13:52.851Z,101769.78
2023-04-10T22:18:56.720Z,101773.31
2023-04-10T22:23:59.481Z,101769.13
2023-04-10T22:29:04.151Z,101769.44
2023-04-10T22:34:11.068Z,101771.41
2023-04-10T22:39:15.496Z,101761.31
2023-04-10T22:44:18.541Z,101749.25
2023-04-10T22:49:21.360Z,101753.44
2023-04-10T22:54:25.074Z,101764.22
2023-04-10T22:59:29.254Z,101755.31
2023-04-10T23:04:32.212Z,101768.56
2023-04-10T23:09:34.965Z,101764.91
2023-04-10T23:14:37.938Z,101768.59
2023-04-10T23:19:40.677Z,101763.50
2023-04-10T23:24:43.385Z,101767.75
2023-04-10T23:29:49.464Z,101765.09
2023-04-10T23:34:52.207Z,101763.06
2023-04-10T23:39:54.964Z,101759.69
2023-04-10T23:44:57.663Z,101766.22
2023-04-10T23:50:00.394Z,101768.56
2023-04-10T23:55:03.518Z,101762.81
